sensor_id;sensor_type;location;lat;lon;timestamp;temperature;humidity
68274;SHT30;55104;47.356;19.448;2023-06-14T00:01:43;12.69;89.44
68274;SHT30;55104;47.356;19.448;2023-06-14T00:04:47;12.59;89.99
68274;SHT30;55104;47.356;19.448;2023-06-14T00:07:50;12.59;90.06
68274;SHT30;55104;47.356;19.448;2023-06-14T00:10:55;12.55;90.34
68274;SHT30;55104;47.356;19.448;2023-06-14T00:13:57;12.52;90.65
68274;SHT30;55104;47.356;19.448;2023-06-14T00:16:59;12.50;90.75
68274;SHT30;55104;47.356;19.448;2023-06-14T00:20:03;12.48;90.93
68274;SHT30;55104;47.356;19.448;2023-06-14T00:23:08;12.45;90.98
68274;SHT30;55104;47.356;19.448;2023-06-14T00:26:10;12.41;91.40
68274;SHT30;55104;47.356;19.448;2023-06-14T00:29:13;12.35;91.60
68274;SHT30;55104;47.356;19.448;2023-06-14T00:32:15;12.39;91.44
68274;SHT30;55104;47.356;19.448;2023-06-14T00:35:18;12.36;91.63
68274;SHT30;55104;47.356;19.448;2023-06-14T00:38:20;12.33;91.92
68274;SHT30;55104;47.356;19.448;2023-06-14T00:41:23;12.35;91.76
68274;SHT30;55104;47.356;19.448;2023-06-14T00:44:25;12.35;91.95
68274;SHT30;55104;47.356;19.448;2023-06-14T00:47:27;12.35;92.00
68274;SHT30;55104;47.356;19.448;2023-06-14T00:50:29;12.31;92.09
68274;SHT30;55104;47.356;19.448;2023-06-14T00:53:33;12.35;91.90
68274;SHT30;55104;47.356;19.448;2023-06-14T00:56:38;12.36;91.79
68274;SHT30;55104;47.356;19.448;2023-06-14T00:59:46;12.33;91.81
68274;SHT30;55104;47.356;19.448;2023-06-14T01:02:48;12.28;91.97
68274;SHT30;55104;47.356;19.448;2023-06-14T01:05:59;12.29;91.95
68274;SHT30;55104;47.356;19.448;2023-06-14T01:15:59;12.22;92.12
68274;SHT30;55104;47.356;19.448;2023-06-14T01:19:02;12.25;92.21
68274;SHT30;55104;47.356;19.448;2023-06-14T01:22:06;12.28;92.09
68274;SHT30;55104;47.356;19.448;2023-06-14T01:25:08;12.22;92.18
68274;SHT30;55104;47.356;19.448;2023-06-14T01:28:11;12.17;92.26
68274;SHT30;55104;47.356;19.448;2023-06-14T01:31:18;12.15;92.43
68274;SHT30;55104;47.356;19.448;2023-06-14T01:34:21;12.10;92.40
68274;SHT30;55104;47.356;19.448;2023-06-14T01:37:25;12.07;92.50
68274;SHT30;55104;47.356;19.448;2023-06-14T01:40:28;12.05;92.58
68274;SHT30;55104;47.356;19.448;2023-06-14T01:43:32;12.02;92.77
68274;SHT30;55104;47.356;19.448;2023-06-14T01:46:38;12.02;92.72
68274;SHT30;55104;47.356;19.448;2023-06-14T01:49:42;12.01;92.74
68274;SHT30;55104;47.356;19.448;2023-06-14T01:52:44;11.98;92.85
68274;SHT30;55104;47.356;19.448;2023-06-14T01:55:46;11.91;92.91
68274;SHT30;55104;47.356;19.448;2023-06-14T01:58:50;11.87;93.35
68274;SHT30;55104;47.356;19.448;2023-06-14T02:01:54;11.83;93.58
68274;SHT30;55104;47.356;19.448;2023-06-14T02:04:56;11.83;93.62
68274;SHT30;55104;47.356;19.448;2023-06-14T02:07:59;11.84;93.54
68274;SHT30;55104;47.356;19.448;2023-06-14T02:11:01;11.74;94.65
68274;SHT30;55104;47.356;19.448;2023-06-14T02:14:03;11.77;94.17
68274;SHT30;55104;47.356;19.448;2023-06-14T02:17:05;11.78;94.08
68274;SHT30;55104;47.356;19.448;2023-06-14T02:20:08;11.83;93.94
68274;SHT30;55104;47.356;19.448;2023-06-14T02:23:11;11.78;94.28
68274;SHT30;55104;47.356;19.448;2023-06-14T02:26:13;11.76;94.13
68274;SHT30;55104;47.356;19.448;2023-06-14T02:29:15;11.83;94.06
68274;SHT30;55104;47.356;19.448;2023-06-14T02:32:17;11.83;94.25
68274;SHT30;55104;47.356;19.448;2023-06-14T02:35:20;11.90;93.99
68274;SHT30;55104;47.356;19.448;2023-06-14T02:38:24;11.88;93.98
68274;SHT30;55104;47.356;19.448;2023-06-14T02:41:26;11.87;93.82
68274;SHT30;55104;47.356;19.448;2023-06-14T02:44:29;11.80;94.28
68274;SHT30;55104;47.356;19.448;2023-06-14T02:47:34;11.77;94.23
68274;SHT30;55104;47.356;19.448;2023-06-14T02:50:36;11.83;94.06
68274;SHT30;55104;47.356;19.448;2023-06-14T02:53:38;11.80;94.01
68274;SHT30;55104;47.356;19.448;2023-06-14T02:56:40;11.76;94.22
68274;SHT30;55104;47.356;19.448;2023-06-14T02:59:43;11.78;94.25
68274;SHT30;55104;47.356;19.448;2023-06-14T03:02:45;11.77;94.14
68274;SHT30;55104;47.356;19.448;2023-06-14T03:05:48;11.80;93.94
68274;SHT30;55104;47.356;19.448;2023-06-14T03:08:55;11.86;93.87
68274;SHT30;55104;47.356;19.448;2023-06-14T03:12:01;11.87;93.80
68274;SHT30;55104;47.356;19.448;2023-06-14T03:15:05;11.83;93.81
68274;SHT30;55104;47.356;19.448;2023-06-14T03:18:12;11.81;93.95
68274;SHT30;55104;47.356;19.448;2023-06-14T03:21:14;11.87;94.02
68274;SHT30;55104;47.356;19.448;2023-06-14T03:24:19;11.95;93.93
68274;SHT30;55104;47.356;19.448;2023-06-14T03:27:22;12.01;93.84
68274;SHT30;55104;47.356;19.448;2023-06-14T03:30:24;12.08;93.68
68274;SHT30;55104;47.356;19.448;2023-06-14T03:33:27;12.17;93.53
68274;SHT30;55104;47.356;19.448;2023-06-14T03:36:30;12.24;93.26
68274;SHT30;55104;47.356;19.448;2023-06-14T03:39:33;12.29;93.31
68274;SHT30;55104;47.356;19.448;2023-06-14T03:42:36;12.38;93.00
68274;SHT30;55104;47.356;19.448;2023-06-14T03:45:39;12.42;92.92
68274;SHT30;55104;47.356;19.448;2023-06-14T03:48:43;12.46;92.97
68274;SHT30;55104;47.356;19.448;2023-06-14T03:51:45;12.56;92.93
68274;SHT30;55104;47.356;19.448;2023-06-14T03:54:56;12.66;92.55
68274;SHT30;55104;47.356;19.448;2023-06-14T03:58:19;12.73;92.48
68274;SHT30;55104;47.356;19.448;2023-06-14T04:01:21;12.79;92.19
68274;SHT30;55104;47.356;19.448;2023-06-14T04:04:26;12.83;92.13
68274;SHT30;55104;47.356;19.448;2023-06-14T04:07:32;12.93;91.90
68274;SHT30;55104;47.356;19.448;2023-06-14T04:10:43;13.01;91.69
68274;SHT30;55104;47.356;19.448;2023-06-14T04:13:45;13.11;91.23
68274;SHT30;55104;47.356;19.448;2023-06-14T04:16:48;13.18;91.09
68274;SHT30;55104;47.356;19.448;2023-06-14T04:19:52;13.35;90.48
68274;SHT30;55104;47.356;19.448;2023-06-14T04:22:56;13.45;90.04
68274;SHT30;55104;47.356;19.448;2023-06-14T04:25:59;13.53;89.75
68274;SHT30;55104;47.356;19.448;2023-06-14T04:29:04;13.65;89.19
68274;SHT30;55104;47.356;19.448;2023-06-14T04:32:14;13.74;88.57
68274;SHT30;55104;47.356;19.448;2023-06-14T04:35:17;13.83;88.01
68274;SHT30;55104;47.356;19.448;2023-06-14T04:38:20;13.94;87.93
68274;SHT30;55104;47.356;19.448;2023-06-14T04:41:28;14.06;87.67
68274;SHT30;55104;47.356;19.448;2023-06-14T04:44:30;14.25;87.13
68274;SHT30;55104;47.356;19.448;2023-06-14T04:47:36;14.32;86.41
68274;SHT30;55104;47.356;19.448;2023-06-14T04:50:41;14.49;86.19
68274;SHT30;55104;47.356;19.448;2023-06-14T04:53:45;14.66;85.55
68274;SHT30;55104;47.356;19.448;2023-06-14T04:56:47;14.80;85.09
68274;SHT30;55104;47.356;19.448;2023-06-14T04:59:49;15.00;84.53
68274;SHT30;55104;47.356;19.448;2023-06-14T05:02:56;15.34;83.10
68274;SHT30;55104;47.356;19.448;2023-06-14T05:06:00;15.66;81.98
68274;SHT30;55104;47.356;19.448;2023-06-14T05:09:03;16.20;80.30
68274;SHT30;55104;47.356;19.448;2023-06-14T05:12:05;16.89;78.09
68274;SHT30;55104;47.356;19.448;2023-06-14T05:15:09;17.35;75.58
68274;SHT30;55104;47.356;19.448;2023-06-14T05:18:12;18.96;71.60
68274;SHT30;55104;47.356;19.448;2023-06-14T05:21:15;19.78;68.52
68274;SHT30;55104;47.356;19.448;2023-06-14T05:24:19;20.16;66.42
68274;SHT30;55104;47.356;19.448;2023-06-14T05:27:22;20.76;64.40
68274;SHT30;55104;47.356;19.448;2023-06-14T05:30:25;20.12;64.14
68274;SHT30;55104;47.356;19.448;2023-06-14T05:33:27;21.03;63.27
68274;SHT30;55104;47.356;19.448;2023-06-14T05:36:30;21.37;62.09
68274;SHT30;55104;47.356;19.448;2023-06-14T05:39:32;21.64;61.86
68274;SHT30;55104;47.356;19.448;2023-06-14T05:42:34;22.02;61.40
68274;SHT30;55104;47.356;19.448;2023-06-14T05:45:36;22.24;59.97
68274;SHT30;55104;47.356;19.448;2023-06-14T05:48:38;22.32;59.61
68274;SHT30;55104;47.356;19.448;2023-06-14T05:51:40;22.54;59.36
68274;SHT30;55104;47.356;19.448;2023-06-14T05:54:42;22.41;58.87
68274;SHT30;55104;47.356;19.448;2023-06-14T05:57:44;22.65;59.41
68274;SHT30;55104;47.356;19.448;2023-06-14T06:00:47;22.56;59.58
68274;SHT30;55104;47.356;19.448;2023-06-14T06:03:48;22.19;59.23
68274;SHT30;55104;47.356;19.448;2023-06-14T06:06:51;22.32;59.91
68274;SHT30;55104;47.356;19.448;2023-06-14T06:09:53;21.95;59.80
68274;SHT30;55104;47.356;19.448;2023-06-14T06:12:55;21.40;61.79
68274;SHT30;55104;47.356;19.448;2023-06-14T06:15:57;20.48;64.66
68274;SHT30;55104;47.356;19.448;2023-06-14T06:18:59;20.16;66.54
68274;SHT30;55104;47.356;19.448;2023-06-14T06:22:02;19.68;67.71
68274;SHT30;55104;47.356;19.448;2023-06-14T06:25:07;19.21;69.34
68274;SHT30;55104;47.356;19.448;2023-06-14T06:28:09;19.07;69.91
68274;SHT30;55104;47.356;19.448;2023-06-14T06:31:11;18.92;70.54
68274;SHT30;55104;47.356;19.448;2023-06-14T06:34:14;18.76;70.01
68274;SHT30;55104;47.356;19.448;2023-06-14T06:37:16;18.83;70.79
68274;SHT30;55104;47.356;19.448;2023-06-14T06:40:18;19.03;70.63
68274;SHT30;55104;47.356;19.448;2023-06-14T06:43:20;19.26;69.55
68274;SHT30;55104;47.356;19.448;2023-06-14T06:46:23;19.46;68.88
68274;SHT30;55104;47.356;19.448;2023-06-14T06:49:26;19.54;69.88
68274;SHT30;55104;47.356;19.448;2023-06-14T06:52:28;19.68;68.96
68274;SHT30;55104;47.356;19.448;2023-06-14T06:55:31;19.86;68.37
68274;SHT30;55104;47.356;19.448;2023-06-14T06:58:33;20.12;67.38
68274;SHT30;55104;47.356;19.448;2023-06-14T07:01:35;20.30;67.03
68274;SHT30;55104;47.356;19.448;2023-06-14T07:04:38;20.02;66.43
68274;SHT30;55104;47.356;19.448;2023-06-14T07:07:40;20.21;67.32
68274;SHT30;55104;47.356;19.448;2023-06-14T07:10:42;20.34;66.63
68274;SHT30;55104;47.356;19.448;2023-06-14T07:13:44;20.57;68.67
68274;SHT30;55104;47.356;19.448;2023-06-14T07:16:47;20.69;65.73
68274;SHT30;55104;47.356;19.448;2023-06-14T07:19:49;20.91;64.55
68274;SHT30;55104;47.356;19.448;2023-06-14T07:22:53;20.93;63.78
68274;SHT30;55104;47.356;19.448;2023-06-14T07:25:55;21.26;63.43
68274;SHT30;55104;47.356;19.448;2023-06-14T07:28:57;20.96;62.19
68274;SHT30;55104;47.356;19.448;2023-06-14T07:31:59;21.37;64.40
68274;SHT30;55104;47.356;19.448;2023-06-14T07:35:01;21.73;64.79
68274;SHT30;55104;47.356;19.448;2023-06-14T07:38:03;22.29;63.47
68274;SHT30;55104;47.356;19.448;2023-06-14T07:41:05;22.63;60.09
68274;SHT30;55104;47.356;19.448;2023-06-14T07:44:07;22.37;60.37
68274;SHT30;55104;47.356;19.448;2023-06-14T07:47:09;22.53;59.16
68274;SHT30;55104;47.356;19.448;2023-06-14T07:50:12;22.72;57.48
68274;SHT30;55104;47.356;19.448;2023-06-14T07:53:15;23.20;56.23
68274;SHT30;55104;47.356;19.448;2023-06-14T07:56:17;22.61;56.03
68274;SHT30;55104;47.356;19.448;2023-06-14T07:59:19;22.58;56.72
68274;SHT30;55104;47.356;19.448;2023-06-14T08:02:22;22.77;56.70
68274;SHT30;55104;47.356;19.448;2023-06-14T08:05:24;22.88;56.69
68274;SHT30;55104;47.356;19.448;2023-06-14T08:08:27;23.38;57.41
68274;SHT30;55104;47.356;19.448;2023-06-14T08:11:29;23.46;53.52
68274;SHT30;55104;47.356;19.448;2023-06-14T08:14:31;23.81;53.37
68274;SHT30;55104;47.356;19.448;2023-06-14T08:17:33;23.49;54.68
68274;SHT30;55104;47.356;19.448;2023-06-14T08:20:37;23.22;55.65
68274;SHT30;55104;47.356;19.448;2023-06-14T08:23:39;22.94;56.08
68274;SHT30;55104;47.356;19.448;2023-06-14T08:26:41;23.19;55.35
68274;SHT30;55104;47.356;19.448;2023-06-14T08:29:43;23.47;56.07
68274;SHT30;55104;47.356;19.448;2023-06-14T08:32:45;23.49;55.62
68274;SHT30;55104;47.356;19.448;2023-06-14T08:35:54;23.24;54.09
68274;SHT30;55104;47.356;19.448;2023-06-14T08:38:56;23.20;54.92
68274;SHT30;55104;47.356;19.448;2023-06-14T08:42:01;22.96;55.38
68274;SHT30;55104;47.356;19.448;2023-06-14T08:45:04;23.38;56.35
68274;SHT30;55104;47.356;19.448;2023-06-14T08:48:07;23.61;53.82
68274;SHT30;55104;47.356;19.448;2023-06-14T08:51:10;23.54;52.86
68274;SHT30;55104;47.356;19.448;2023-06-14T08:54:14;23.56;53.72
68274;SHT30;55104;47.356;19.448;2023-06-14T08:57:17;23.16;53.75
68274;SHT30;55104;47.356;19.448;2023-06-14T09:00:20;23.11;53.65
68274;SHT30;55104;47.356;19.448;2023-06-14T09:03:23;23.09;54.25
68274;SHT30;55104;47.356;19.448;2023-06-14T09:06:31;23.22;51.22
68274;SHT30;55104;47.356;19.448;2023-06-14T09:09:39;23.73;52.83
68274;SHT30;55104;47.356;19.448;2023-06-14T09:12:48;23.85;53.07
68274;SHT30;55104;47.356;19.448;2023-06-14T09:15:50;23.60;51.29
68274;SHT30;55104;47.356;19.448;2023-06-14T09:18:53;23.39;52.73
68274;SHT30;55104;47.356;19.448;2023-06-14T09:21:55;23.29;51.87
68274;SHT30;55104;47.356;19.448;2023-06-14T09:24:58;23.11;50.27
68274;SHT30;55104;47.356;19.448;2023-06-14T09:28:00;23.01;50.37
68274;SHT30;55104;47.356;19.448;2023-06-14T09:31:02;23.23;49.44
68274;SHT30;55104;47.356;19.448;2023-06-14T09:34:04;23.13;51.68
68274;SHT30;55104;47.356;19.448;2023-06-14T09:37:06;22.88;52.38
68274;SHT30;55104;47.356;19.448;2023-06-14T09:40:09;22.84;52.05
68274;SHT30;55104;47.356;19.448;2023-06-14T09:43:11;22.75;52.33
68274;SHT30;55104;47.356;19.448;2023-06-14T09:46:13;22.94;52.90
68274;SHT30;55104;47.356;19.448;2023-06-14T09:49:15;23.15;50.01
68274;SHT30;55104;47.356;19.448;2023-06-14T09:52:19;23.95;51.35
68274;SHT30;55104;47.356;19.448;2023-06-14T09:55:21;24.76;48.29
68274;SHT30;55104;47.356;19.448;2023-06-14T09:58:26;24.28;45.39
68274;SHT30;55104;47.356;19.448;2023-06-14T10:01:30;24.25;49.63
68274;SHT30;55104;47.356;19.448;2023-06-14T10:04:33;24.36;51.71
68274;SHT30;55104;47.356;19.448;2023-06-14T10:07:42;24.61;48.86
68274;SHT30;55104;47.356;19.448;2023-06-14T10:10:46;24.50;47.23
68274;SHT30;55104;47.356;19.448;2023-06-14T10:13:49;24.70;43.08
68274;SHT30;55104;47.356;19.448;2023-06-14T10:17:09;25.58;47.27
68274;SHT30;55104;47.356;19.448;2023-06-14T10:20:32;26.18;44.19
68274;SHT30;55104;47.356;19.448;2023-06-14T10:23:40;26.09;44.97
68274;SHT30;55104;47.356;19.448;2023-06-14T10:26:54;26.32;44.02
68274;SHT30;55104;47.356;19.448;2023-06-14T10:30:05;25.22;41.84
68274;SHT30;55104;47.356;19.448;2023-06-14T10:33:09;25.50;43.73
68274;SHT30;55104;47.356;19.448;2023-06-14T10:36:25;25.43;46.03
68274;SHT30;55104;47.356;19.448;2023-06-14T10:39:47;25.93;44.25
68274;SHT30;55104;47.356;19.448;2023-06-14T10:42:52;24.92;43.33
68274;SHT30;55104;47.356;19.448;2023-06-14T10:49:19;25.08;44.67
68274;SHT30;55104;47.356;19.448;2023-06-14T10:52:27;25.04;43.99
68274;SHT30;55104;47.356;19.448;2023-06-14T10:55:34;25.50;42.77
68274;SHT30;55104;47.356;19.448;2023-06-14T10:58:37;25.43;43.51
68274;SHT30;55104;47.356;19.448;2023-06-14T11:05:13;24.78;42.57
68274;SHT30;55104;47.356;19.448;2023-06-14T11:11:37;25.42;40.20
68274;SHT30;55104;47.356;19.448;2023-06-14T11:14:40;25.80;40.59
68274;SHT30;55104;47.356;19.448;2023-06-14T11:17:52;25.97;38.66
68274;SHT30;55104;47.356;19.448;2023-06-14T11:20:58;25.86;41.10
68274;SHT30;55104;47.356;19.448;2023-06-14T11:24:00;25.21;44.45
68274;SHT30;55104;47.356;19.448;2023-06-14T11:27:03;25.38;42.30
68274;SHT30;55104;47.356;19.448;2023-06-14T11:30:07;25.71;41.44
68274;SHT30;55104;47.356;19.448;2023-06-14T11:33:10;25.32;40.93
68274;SHT30;55104;47.356;19.448;2023-06-14T11:36:13;25.32;42.61
68274;SHT30;55104;47.356;19.448;2023-06-14T11:39:15;25.47;42.13
68274;SHT30;55104;47.356;19.448;2023-06-14T11:42:18;25.07;40.31
68274;SHT30;55104;47.356;19.448;2023-06-14T11:45:20;25.54;44.33
68274;SHT30;55104;47.356;19.448;2023-06-14T11:48:22;25.46;42.29
68274;SHT30;55104;47.356;19.448;2023-06-14T11:51:25;25.50;44.03
68274;SHT30;55104;47.356;19.448;2023-06-14T11:54:27;25.76;42.76
68274;SHT30;55104;47.356;19.448;2023-06-14T11:57:29;25.45;38.20
68274;SHT30;55104;47.356;19.448;2023-06-14T12:00:31;25.77;39.16
68274;SHT30;55104;47.356;19.448;2023-06-14T12:03:33;25.84;43.27
68274;SHT30;55104;47.356;19.448;2023-06-14T12:06:36;25.73;42.05
68274;SHT30;55104;47.356;19.448;2023-06-14T12:09:41;25.79;39.81
68274;SHT30;55104;47.356;19.448;2023-06-14T12:12:46;26.15;40.93
68274;SHT30;55104;47.356;19.448;2023-06-14T12:15:54;25.46;40.08
68274;SHT30;55104;47.356;19.448;2023-06-14T12:19:00;25.66;37.57
68274;SHT30;55104;47.356;19.448;2023-06-14T12:22:03;25.77;38.81
68274;SHT30;55104;47.356;19.448;2023-06-14T12:25:06;26.25;38.60
68274;SHT30;55104;47.356;19.448;2023-06-14T12:28:11;26.22;38.10
68274;SHT30;55104;47.356;19.448;2023-06-14T12:31:15;25.94;35.74
68274;SHT30;55104;47.356;19.448;2023-06-14T12:34:17;25.47;35.07
68274;SHT30;55104;47.356;19.448;2023-06-14T12:37:19;26.04;40.14
68274;SHT30;55104;47.356;19.448;2023-06-14T12:40:21;26.08;36.86
68274;SHT30;55104;47.356;19.448;2023-06-14T12:43:23;25.62;34.18
68274;SHT30;55104;47.356;19.448;2023-06-14T12:46:26;25.79;35.18
68274;SHT30;55104;47.356;19.448;2023-06-14T12:49:28;26.02;37.45
68274;SHT30;55104;47.356;19.448;2023-06-14T12:52:30;26.42;35.06
68274;SHT30;55104;47.356;19.448;2023-06-14T12:55:32;26.13;36.97
68274;SHT30;55104;47.356;19.448;2023-06-14T12:58:34;26.04;33.94
68274;SHT30;55104;47.356;19.448;2023-06-14T13:01:38;25.65;33.90
68274;SHT30;55104;47.356;19.448;2023-06-14T13:04:40;25.81;36.06
68274;SHT30;55104;47.356;19.448;2023-06-14T13:07:42;26.14;38.08
68274;SHT30;55104;47.356;19.448;2023-06-14T13:10:44;25.79;33.48
68274;SHT30;55104;47.356;19.448;2023-06-14T13:13:47;26.28;37.85
68274;SHT30;55104;47.356;19.448;2023-06-14T13:16:49;26.21;35.94
68274;SHT30;55104;47.356;19.448;2023-06-14T13:19:51;26.48;37.78
68274;SHT30;55104;47.356;19.448;2023-06-14T13:22:53;26.57;35.27
68274;SHT30;55104;47.356;19.448;2023-06-14T13:25:55;26.46;35.82
68274;SHT30;55104;47.356;19.448;2023-06-14T13:28:57;27.17;35.63
68274;SHT30;55104;47.356;19.448;2023-06-14T13:31:59;26.70;36.14
68274;SHT30;55104;47.356;19.448;2023-06-14T13:35:02;26.56;36.73
68274;SHT30;55104;47.356;19.448;2023-06-14T13:38:05;26.49;32.45
68274;SHT30;55104;47.356;19.448;2023-06-14T13:41:07;26.66;34.25
68274;SHT30;55104;47.356;19.448;2023-06-14T13:44:10;26.87;35.20
68274;SHT30;55104;47.356;19.448;2023-06-14T13:47:17;26.97;35.56
68274;SHT30;55104;47.356;19.448;2023-06-14T13:50:20;26.69;36.97
68274;SHT30;55104;47.356;19.448;2023-06-14T13:53:22;26.09;35.63
68274;SHT30;55104;47.356;19.448;2023-06-14T13:56:24;26.01;34.78
68274;SHT30;55104;47.356;19.448;2023-06-14T13:59:26;26.69;33.52
68274;SHT30;55104;47.356;19.448;2023-06-14T14:02:29;26.49;33.97
68274;SHT30;55104;47.356;19.448;2023-06-14T14:05:31;26.18;37.79
68274;SHT30;55104;47.356;19.448;2023-06-14T14:08:33;26.35;36.48
68274;SHT30;55104;47.356;19.448;2023-06-14T14:11:35;26.75;38.91
68274;SHT30;55104;47.356;19.448;2023-06-14T14:14:37;26.70;34.59
68274;SHT30;55104;47.356;19.448;2023-06-14T14:17:39;26.79;36.87
68274;SHT30;55104;47.356;19.448;2023-06-14T14:20:41;26.62;35.40
68274;SHT30;55104;47.356;19.448;2023-06-14T14:23:43;26.43;35.59
68274;SHT30;55104;47.356;19.448;2023-06-14T14:26:47;26.22;38.78
68274;SHT30;55104;47.356;19.448;2023-06-14T14:29:50;25.87;37.95
68274;SHT30;55104;47.356;19.448;2023-06-14T14:32:53;25.14;38.23
68274;SHT30;55104;47.356;19.448;2023-06-14T14:35:55;24.97;38.41
68274;SHT30;55104;47.356;19.448;2023-06-14T14:38:57;24.50;42.08
68274;SHT30;55104;47.356;19.448;2023-06-14T14:41:59;24.49;40.24
68274;SHT30;55104;47.356;19.448;2023-06-14T14:45:02;24.80;42.52
68274;SHT30;55104;47.356;19.448;2023-06-14T14:48:05;24.42;42.82
68274;SHT30;55104;47.356;19.448;2023-06-14T14:51:07;24.42;43.80
68274;SHT30;55104;47.356;19.448;2023-06-14T14:54:10;24.78;43.29
68274;SHT30;55104;47.356;19.448;2023-06-14T14:57:12;24.78;43.56
68274;SHT30;55104;47.356;19.448;2023-06-14T15:00:14;24.64;44.10
68274;SHT30;55104;47.356;19.448;2023-06-14T15:03:17;24.76;45.21
68274;SHT30;55104;47.356;19.448;2023-06-14T15:06:19;24.63;46.28
68274;SHT30;55104;47.356;19.448;2023-06-14T15:09:21;24.61;44.18
68274;SHT30;55104;47.356;19.448;2023-06-14T15:12:23;24.46;44.15
68274;SHT30;55104;47.356;19.448;2023-06-14T15:15:25;24.28;44.97
68274;SHT30;55104;47.356;19.448;2023-06-14T15:18:27;24.19;45.58
68274;SHT30;55104;47.356;19.448;2023-06-14T15:21:29;24.04;46.75
68274;SHT30;55104;47.356;19.448;2023-06-14T15:24:31;23.82;45.99
68274;SHT30;55104;47.356;19.448;2023-06-14T15:27:44;23.87;47.10
68274;SHT30;55104;47.356;19.448;2023-06-14T15:30:46;23.77;46.84
68274;SHT30;55104;47.356;19.448;2023-06-14T15:33:49;23.70;45.91
68274;SHT30;55104;47.356;19.448;2023-06-14T15:36:51;23.79;48.74
68274;SHT30;55104;47.356;19.448;2023-06-14T15:39:53;23.95;48.51
68274;SHT30;55104;47.356;19.448;2023-06-14T15:42:55;23.97;48.35
68274;SHT30;55104;47.356;19.448;2023-06-14T15:45:57;24.00;47.41
68274;SHT30;55104;47.356;19.448;2023-06-14T15:48:58;23.95;48.62
68274;SHT30;55104;47.356;19.448;2023-06-14T15:52:01;23.60;48.31
68274;SHT30;55104;47.356;19.448;2023-06-14T15:55:03;23.43;48.31
68274;SHT30;55104;47.356;19.448;2023-06-14T15:58:05;23.40;48.71
68274;SHT30;55104;47.356;19.448;2023-06-14T16:01:07;23.30;49.35
68274;SHT30;55104;47.356;19.448;2023-06-14T16:04:09;22.95;48.92
68274;SHT30;55104;47.356;19.448;2023-06-14T16:07:11;22.96;50.23
68274;SHT30;55104;47.356;19.448;2023-06-14T16:10:15;22.81;50.36
68274;SHT30;55104;47.356;19.448;2023-06-14T16:13:18;22.77;51.17
68274;SHT30;55104;47.356;19.448;2023-06-14T16:16:20;22.71;50.49
68274;SHT30;55104;47.356;19.448;2023-06-14T16:19:22;22.56;51.14
68274;SHT30;55104;47.356;19.448;2023-06-14T16:22:25;22.47;51.30
68274;SHT30;55104;47.356;19.448;2023-06-14T16:25:27;22.47;52.43
68274;SHT30;55104;47.356;19.448;2023-06-14T16:28:31;22.47;51.89
68274;SHT30;55104;47.356;19.448;2023-06-14T16:31:33;22.57;51.97
68274;SHT30;55104;47.356;19.448;2023-06-14T16:34:36;22.58;51.51
68274;SHT30;55104;47.356;19.448;2023-06-14T16:37:38;22.57;51.13
68274;SHT30;55104;47.356;19.448;2023-06-14T16:40:40;22.51;50.83
68274;SHT30;55104;47.356;19.448;2023-06-14T16:43:42;22.47;51.73
68274;SHT30;55104;47.356;19.448;2023-06-14T16:46:44;22.33;51.97
68274;SHT30;55104;47.356;19.448;2023-06-14T16:49:47;22.22;52.05
68274;SHT30;55104;47.356;19.448;2023-06-14T16:52:49;22.17;51.33
68274;SHT30;55104;47.356;19.448;2023-06-14T16:55:52;22.14;51.36
68274;SHT30;55104;47.356;19.448;2023-06-14T16:58:57;22.10;51.40
68274;SHT30;55104;47.356;19.448;2023-06-14T17:02:03;22.24;51.75
68274;SHT30;55104;47.356;19.448;2023-06-14T17:05:08;22.26;51.79
68274;SHT30;55104;47.356;19.448;2023-06-14T17:08:10;22.22;51.28
68274;SHT30;55104;47.356;19.448;2023-06-14T17:11:12;22.17;51.92
68274;SHT30;55104;47.356;19.448;2023-06-14T17:14:15;22.29;51.77
68274;SHT30;55104;47.356;19.448;2023-06-14T17:17:17;22.14;52.13
68274;SHT30;55104;47.356;19.448;2023-06-14T17:20:19;21.94;52.61
68274;SHT30;55104;47.356;19.448;2023-06-14T17:23:23;21.95;52.36
68274;SHT30;55104;47.356;19.448;2023-06-14T17:26:25;21.74;53.37
68274;SHT30;55104;47.356;19.448;2023-06-14T17:29:27;21.71;52.74
68274;SHT30;55104;47.356;19.448;2023-06-14T17:32:29;21.58;52.84
68274;SHT30;55104;47.356;19.448;2023-06-14T17:35:31;21.47;52.94
68274;SHT30;55104;47.356;19.448;2023-06-14T17:38:34;21.44;54.22
68274;SHT30;55104;47.356;19.448;2023-06-14T17:41:36;21.43;54.39
68274;SHT30;55104;47.356;19.448;2023-06-14T17:44:38;21.41;53.91
68274;SHT30;55104;47.356;19.448;2023-06-14T17:47:40;21.41;54.94
68274;SHT30;55104;47.356;19.448;2023-06-14T17:50:42;21.39;55.02
68274;SHT30;55104;47.356;19.448;2023-06-14T17:53:45;21.37;56.23
68274;SHT30;55104;47.356;19.448;2023-06-14T17:56:48;21.30;56.19
68274;SHT30;55104;47.356;19.448;2023-06-14T17:59:50;21.23;56.93
68274;SHT30;55104;47.356;19.448;2023-06-14T18:02:52;21.19;56.95
68274;SHT30;55104;47.356;19.448;2023-06-14T18:05:55;21.09;57.61
68274;SHT30;55104;47.356;19.448;2023-06-14T18:09:00;20.99;56.90
68274;SHT30;55104;47.356;19.448;2023-06-14T18:12:02;20.85;57.99
68274;SHT30;55104;47.356;19.448;2023-06-14T18:15:05;20.75;58.19
68274;SHT30;55104;47.356;19.448;2023-06-14T18:18:07;20.63;59.24
68274;SHT30;55104;47.356;19.448;2023-06-14T18:21:10;20.44;59.67
68274;SHT30;55104;47.356;19.448;2023-06-14T18:24:12;20.36;59.66
68274;SHT30;55104;47.356;19.448;2023-06-14T18:27:15;20.20;60.89
68274;SHT30;55104;47.356;19.448;2023-06-14T18:30:17;20.03;62.71
68274;SHT30;55104;47.356;19.448;2023-06-14T18:33:21;19.82;64.51
68274;SHT30;55104;47.356;19.448;2023-06-14T18:36:24;19.62;65.53
68274;SHT30;55104;47.356;19.448;2023-06-14T18:39:26;19.47;65.65
68274;SHT30;55104;47.356;19.448;2023-06-14T18:42:29;19.35;65.92
68274;SHT30;55104;47.356;19.448;2023-06-14T18:45:31;19.26;67.97
68274;SHT30;55104;47.356;19.448;2023-06-14T18:48:34;19.10;68.47
68274;SHT30;55104;47.356;19.448;2023-06-14T18:51:37;18.85;68.40
68274;SHT30;55104;47.356;19.448;2023-06-14T18:54:41;18.73;68.39
68274;SHT30;55104;47.356;19.448;2023-06-14T18:57:43;18.56;69.94
68274;SHT30;55104;47.356;19.448;2023-06-14T19:00:46;18.41;70.15
68274;SHT30;55104;47.356;19.448;2023-06-14T19:03:50;18.26;70.22
68274;SHT30;55104;47.356;19.448;2023-06-14T19:06:54;18.14;71.16
68274;SHT30;55104;47.356;19.448;2023-06-14T19:09:57;18.01;71.42
68274;SHT30;55104;47.356;19.448;2023-06-14T19:12:59;17.93;72.25
68274;SHT30;55104;47.356;19.448;2023-06-14T19:16:02;17.90;72.86